METAR stanice u blizini

 

LYBE - Beograd / Surčin, Srbija
Ažurirano: 12/08/2020 14:00
Few Clouds
Few Clouds
 Pravac vetra varies
Vetar: varies 11 km/h
Temperatura: 29°C
Heat Index: 30°C
Tačka rose: 19°C
Vlažnost: 55%
Pritisak: 1017 hPa
Oblaci: Few Clouds
Vidljivost: 10 km
Cloud details: Few Clouds 1006 m
2020/08/12 12:00 LYBE 121200Z VRB06KT 9999 FEW033TCU 29/19 Q1017 NOSIG
LYBT - Beograd / Batajnica, Srbija
Ažurirano: 12/08/2020 14:00
Vedro
Vedro
 Pravac vetra varies
Vetar: varies 9 km/h
Temperatura: 30°C
Heat Index: 30°C
Tačka rose: 16°C
Vlažnost: 43%
Pritisak: 1016 hPa
Pregled: Vedro
Vidljivost: greater than 10 km
2020/08/12 12:00 LYBT 121200Z VRB05KT CAVOK 30/16 Q1016 NOSIG
LYVR - Vršac, Srbija
Ažurirano: 12/08/2020 14:00
Partly Cloudy
Partly Cloudy
 Pravac vetra SI
Vetar: SI 11 km/h
Temperatura: 31°C
Tačka rose: 15°C
Vlažnost: 38%
Pritisak: 1016 hPa
Oblaci: Partly Cloudy
Vidljivost: 10 km
Cloud details: Partly Cloudy 1006 m
2020/08/12 12:00 LYVR 121200Z 04006KT 360V080 9999 SCT033 31/15 Q1016 NOSIG
 
LYKV - Lađevci, Srbija
Ažurirano: 12/08/2020 14:00
Mostly Cloudy
Mostly Cloudy
 Pravac vetra SSI
Vetar: SSI 7 km/h
Temperatura: 28°C
Heat Index: 29°C
Tačka rose: 19°C
Vlažnost: 58%
Pritisak: 1017 hPa
Oblaci: Mostly Cloudy
Vidljivost: 10 km
Cloud details: Mostly Cloudy 1219 m
2020/08/12 12:00 LYKV 121200Z 03004KT 360V060 9999 BKN040 28/19 Q1017 NOSIG
LYNI - Niš, Srbija
Ažurirano: 12/08/2020 14:00
Few Clouds
Few Clouds
 Pravac vetra SZ
Vetar: SZ 20 km/h
Temperatura: 30°C
Heat Index: 30°C
Tačka rose: 16°C
Vlažnost: 43%
Pritisak: 1016 hPa
Oblaci: Few Clouds
Vidljivost: 10 km
Cloud details: Few Clouds 1219 m
2020/08/12 12:00 LYNI 121200Z 32011KT 280V350 9999 FEW040 30/16 Q1016 NOSIG
BKPR - Priština, Srbija
Ažurirano: 12/08/2020 14:00
Partly Cloudy
Partly Cloudy
 Pravac vetra SSI
Vetar: SSI 13 km/h
Temperatura: 28°C
Tačka rose: 12°C
Vlažnost: 37%
Pritisak: 1017 hPa
Oblaci: Partly Cloudy
Vidljivost: 10 km
Cloud details: Few Clouds 914 m
Partly Cloudy 1219 m
2020/08/12 12:00 BKPR 121200Z 03007KT 360V060 9999 FEW030CB SCT040 28/12 Q1017 TEMPO 4000 TSRA
 
LHPP - Pecs / Pogany, Hungary
Ažurirano: 12/08/2020 13:45
Mostly Cloudy
Mostly Cloudy
 Pravac vetra I
Vetar: I 13 km/h
Temperatura: 27°C
Heat Index: 28°C
Tačka rose: 17°C
Vlažnost: 54%
Pritisak: 1018 hPa
Oblaci: Mostly Cloudy
Vidljivost: 10 km
Cloud details: Few Clouds 1219 m
Mostly Cloudy 1311 m
2020/08/12 11:45 LHPP 121145Z 08007KT 9999 FEW040CB BKN043 27/17 Q1018
LHUD - Szeged, Hungary
Ažurirano: 04/07/2019 01:45
NOT Current
Vedro
Vedro
 Pravac vetra S
Vetar: S 7 km/h
Temperatura: 18°C
Tačka rose: 13°C
Vlažnost: 73%
Pritisak: 1019 hPa
Pregled: Vedro
Vidljivost: greater than 10 km
2019/07/03 23:45 LHUD 032345Z 35004KT CAVOK 18/13 Q1019
LRTR - Timisoara, Romania
Ažurirano: 12/08/2020 14:00
Vedro
Vedro
 Pravac vetra S
Vetar: S 17 km/h
Pregled: Vedro
Vidljivost: greater than 10 km
2020/08/12 12:00 LRTR 121200Z 35009KT 310V040 CAVOK 31/1
 
LRCV - Craiova, Romania
Ažurirano: 12/08/2020 14:00
Vedro
Vedro
 Pravac vetra SSZ
Vetar: SSZ 9 km/h
Temperatura: 31°C
Tačka rose: 15°C
Vlažnost: 38%
Pritisak: 1014 hPa
Pregled: Vedro
Vidljivost: greater than 10 km
2020/08/12 12:00 LRCV 121200Z 34005KT 310V050 CAVOK 31/15 Q1014
LBSF - Sofia, Bulgaria
Ažurirano: 12/08/2020 14:00
Slaba kiša, Showers, Delimično oblačno
Slaba kiša, Showers, Delimično oblačno
 Pravac vetra ZSZ
Vetar: ZSZ 17 km/h
Temperatura: 22°C
Tačka rose: 16°C
Vlažnost: 69%
Pritisak: 1018 hPa
Pregled: Slaba kiša, Showers
Oblaci: Partly Cloudy
Vidljivost: 10 km
Cloud details: Few Clouds 1341 m
Partly Cloudy 2530 m
2020/08/12 12:00 LBSF 121200Z 29009KT 9999 -SHRA FEW044CB SCT083 22/16 Q1018 NOSIG
LWSK - Skoplje, Makedonija
Ažurirano: 12/08/2020 14:00
Few Clouds
Few Clouds
 Pravac vetra varies
Vetar: varies 4 km/h
Temperatura: 32°C
Heat Index: 33°C
Tačka rose: 17°C
Vlažnost: 41%
Pritisak: 1015 hPa
Oblaci: Few Clouds
Vidljivost: 10 km
Cloud details: Few Clouds 1524 m
2020/08/12 12:00 LWSK 121200Z VRB02KT 9999 FEW050 32/17 Q1015 NOSIG
 
LYPG - Podgorica, Crna Gora
Ažurirano: 12/08/2020 14:00
Few Clouds
Few Clouds
 Pravac vetra J
Vetar: J 6 km/h
Temperatura: 34°C
Tačka rose: 16°C
Vlažnost: 34%
Pritisak: 1013 hPa
Oblaci: Few Clouds
Vidljivost: 10 km
Cloud details: Few Clouds 1219 m
2020/08/12 12:00 LYPG 121200Z 18003KT 9999 FEW040 34/16 Q1013 NOSIG
LQSA - Sarajevo, Bosna i Hercegovina
Ažurirano: 12/08/2020 14:00
Partly Cloudy
Partly Cloudy
 Pravac vetra SSZ
Vetar: SSZ 11 km/h
Temperatura: 27°C
Heat Index: 28°C
Tačka rose: 17°C
Vlažnost: 54%
Pritisak: 1018 hPa
Oblaci: Partly Cloudy
Vidljivost: 10 km
Cloud details: Partly Cloudy 1219 m
2020/08/12 12:00 LQSA 121200Z 34006KT 310V030 9999 SCT040TCU 27/17 Q1018 TEMPO TSRA FEW035CB BKN045
LDOS - Osijek, Hrvatksa
Ažurirano: 12/08/2020 14:00
Few Clouds
Few Clouds
 Pravac vetra SSI
Vetar: SSI 9 km/h
Temperatura: 29°C
Heat Index: 29°C
Tačka rose: 17°C
Vlažnost: 48%
Pritisak: 1017 hPa
Oblaci: Few Clouds
Vidljivost: 10 km
Cloud details: Few Clouds 1311 m
2020/08/12 12:00 LDOS 121200Z 03005KT 340V100 9999 FEW043 29/17 Q1017